createdAt,value
2024-02-28T00:02:01.045Z,75.50
2024-02-28T00:04:03.792Z,75.56
2024-02-28T00:06:06.528Z,75.57
2024-02-28T00:08:09.271Z,74.94
2024-02-28T00:10:12.052Z,74.83
2024-02-28T00:12:16.353Z,74.74
2024-02-28T00:14:19.170Z,74.85
2024-02-28T00:16:21.904Z,75.04
2024-02-28T00:18:25.987Z,75.03
2024-02-28T00:20:30.636Z,74.91
2024-02-28T00:22:32.364Z,74.88
2024-02-28T00:24:35.130Z,74.58
2024-02-28T00:26:37.957Z,74.50
2024-02-28T00:28:40.644Z,74.49
2024-02-28T00:30:43.389Z,74.43
2024-02-28T00:32:46.130Z,74.17
2024-02-28T00:34:50.264Z,74.33
2024-02-28T00:36:55.855Z,73.75
2024-02-28T00:38:59.350Z,73.72
2024-02-28T00:41:02.196Z,73.76
2024-02-28T00:43:05.459Z,73.93
2024-02-28T00:45:11.507Z,73.99
2024-02-28T00:47:14.239Z,74.11
2024-02-28T00:49:16.981Z,74.06
2024-02-28T00:51:21.155Z,73.91
2024-02-28T00:53:23.873Z,73.58
2024-02-28T00:55:26.578Z,73.17
2024-02-28T00:57:29.396Z,73.38
2024-02-28T00:59:32.178Z,73.10
2024-02-28T01:01:33.987Z,73.07
2024-02-28T01:03:36.746Z,73.04
2024-02-28T01:05:39.443Z,73.22
2024-02-28T01:07:42.508Z,73.27
2024-02-28T01:09:45.576Z,73.64
2024-02-28T01:11:48.322Z,74.03
2024-02-28T01:13:51.746Z,74.29
2024-02-28T01:15:55.194Z,74.75
2024-02-28T01:17:57.988Z,74.88
2024-02-28T01:20:00.888Z,75.25
2024-02-28T01:22:03.671Z,75.23
2024-02-28T01:24:07.213Z,75.32
2024-02-28T01:26:09.896Z,75.56
2024-02-28T01:28:12.592Z,75.61
2024-02-28T01:30:15.671Z,75.47
2024-02-28T01:32:19.464Z,75.68
2024-02-28T01:34:22.207Z,75.43
2024-02-28T01:36:25.073Z,74.97
2024-02-28T01:38:28.454Z,75.18
2024-02-28T01:40:32.472Z,75.19
2024-02-28T01:42:34.237Z,75.36
2024-02-28T01:44:43.278Z,75.51
2024-02-28T01:46:46.482Z,75.07
2024-02-28T01:48:49.254Z,75.48
2024-02-28T01:50:52.185Z,75.22
2024-02-28T01:52:54.012Z,75.20
2024-02-28T01:54:56.944Z,75.60
2024-02-28T01:57:00.997Z,75.70
2024-02-28T01:59:04.391Z,75.93
2024-02-28T02:01:08.341Z,76.08
2024-02-28T02:03:11.178Z,75.58
2024-02-28T02:05:14.557Z,75.40
2024-02-28T02:07:17.624Z,75.58
2024-02-28T02:09:20.384Z,75.89
2024-02-28T02:11:24.152Z,76.02
2024-02-28T02:13:27.261Z,75.99
2024-02-28T02:15:31.649Z,75.63
2024-02-28T02:17:34.389Z,75.39
2024-02-28T02:19:37.353Z,75.44
2024-02-28T02:21:45.971Z,75.52
2024-02-28T02:23:49.343Z,75.46
2024-02-28T02:25:52.076Z,75.59
2024-02-28T02:27:54.873Z,75.42
2024-02-28T02:29:57.575Z,75.42
2024-02-28T02:32:00.315Z,75.41
2024-02-28T02:34:03.083Z,75.47
2024-02-28T02:36:06.074Z,75.44
2024-02-28T02:38:09.141Z,75.78
2024-02-28T02:40:14.678Z,75.90
2024-02-28T02:42:18.651Z,75.81
2024-02-28T02:44:21.389Z,75.71
2024-02-28T02:46:24.107Z,75.48
2024-02-28T02:48:26.060Z,75.43
2024-02-28T02:50:28.991Z,75.19
2024-02-28T02:52:31.726Z,74.47
2024-02-28T02:54:34.448Z,74.53
2024-02-28T02:56:37.800Z,74.96
2024-02-28T02:58:40.531Z,74.84
2024-02-28T03:00:43.275Z,74.96
2024-02-28T03:02:45.986Z,74.89
2024-02-28T03:04:48.680Z,74.63
2024-02-28T03:06:51.436Z,74.66
2024-02-28T03:08:54.240Z,74.48
2024-02-28T03:10:56.004Z,74.40
2024-02-28T03:13:01.799Z,74.22
2024-02-28T03:15:05.162Z,74.01
2024-02-28T03:17:07.856Z,73.96
2024-02-28T03:19:12.019Z,74.01
2024-02-28T03:21:14.789Z,74.38
2024-02-28T03:23:17.584Z,74.40
2024-02-28T03:25:20.273Z,74.56
2024-02-28T03:27:22.106Z,74.35
2024-02-28T03:29:26.340Z,74.51
2024-02-28T03:31:29.505Z,74.24
2024-02-28T03:33:34.068Z,74.47
2024-02-28T03:35:36.869Z,73.99
2024-02-28T03:37:39.615Z,74.13
2024-02-28T03:39:42.487Z,74.28
2024-02-28T03:41:45.418Z,74.35
2024-02-28T03:43:48.145Z,74.13
2024-02-28T03:45:52.304Z,74.32
2024-02-28T03:47:54.126Z,74.43
2024-02-28T03:49:58.407Z,74.47
2024-02-28T03:52:00.333Z,74.63
2024-02-28T03:54:04.108Z,74.69
2024-02-28T03:56:07.318Z,74.57
2024-02-28T03:58:10.034Z,74.23
2024-02-28T04:00:14.105Z,74.49
2024-02-28T04:02:18.274Z,74.42
2024-02-28T04:04:20.962Z,74.90
2024-02-28T04:06:22.940Z,75.06
2024-02-28T04:08:25.764Z,74.94
2024-02-28T04:10:28.487Z,75.12
2024-02-28T04:12:31.398Z,75.68
2024-02-28T04:14:34.111Z,76.08
2024-02-28T04:16:36.805Z,75.91
2024-02-28T04:18:40.892Z,75.92
2024-02-28T04:20:42.689Z,76.25
2024-02-28T04:22:45.424Z,76.52
2024-02-28T04:24:48.204Z,76.65
2024-02-28T04:26:54.403Z,76.62
2024-02-28T04:28:57.488Z,76.45
2024-02-28T04:31:00.310Z,76.62
2024-02-28T04:33:03.579Z,76.20
2024-02-28T04:35:08.072Z,75.90
2024-02-28T04:37:10.754Z,76.07
2024-02-28T04:39:13.566Z,75.87
2024-02-28T04:41:18.093Z,75.74
2024-02-28T04:43:21.029Z,75.54
2024-02-28T04:45:23.865Z,75.54
2024-02-28T04:47:33.226Z,75.71
2024-02-28T04:49:39.797Z,75.52
2024-02-28T04:51:42.913Z,75.64
2024-02-28T04:53:45.742Z,75.27
2024-02-28T04:55:48.475Z,75.12
2024-02-28T04:57:51.230Z,75.13
2024-02-28T04:59:54.130Z,75.26
2024-02-28T05:01:56.843Z,75.06
2024-02-28T05:03:59.581Z,75.00
2024-02-28T05:06:02.289Z,75.31
2024-02-28T05:08:06.730Z,75.44
2024-02-28T05:10:09.239Z,75.53
2024-02-28T05:12:13.956Z,75.37
2024-02-28T05:14:16.732Z,75.40
2024-02-28T05:16:19.487Z,75.31
2024-02-28T05:18:22.279Z,75.32
2024-02-28T05:20:25.318Z,75.45
2024-02-28T05:22:28.103Z,75.26
2024-02-28T05:24:32.219Z,75.07
2024-02-28T05:26:36.921Z,74.66
2024-02-28T05:28:39.898Z,74.93
2024-02-28T05:30:46.122Z,75.10
2024-02-28T05:32:49.741Z,75.21
2024-02-28T05:34:52.435Z,74.46
2024-02-28T05:36:55.245Z,74.94
2024-02-28T05:38:58.876Z,75.32
2024-02-28T05:41:02.948Z,75.24
2024-02-28T05:43:06.075Z,74.56
2024-02-28T05:45:08.516Z,74.54
2024-02-28T05:47:11.197Z,74.50
2024-02-28T05:49:13.963Z,74.34
2024-02-28T05:51:17.745Z,74.31
2024-02-28T05:53:20.858Z,74.51
2024-02-28T05:55:25.278Z,74.69
2024-02-28T05:57:29.409Z,74.82
2024-02-28T05:59:32.173Z,74.33
2024-02-28T06:01:35.024Z,74.44
2024-02-28T06:03:38.158Z,74.40
2024-02-28T06:05:43.723Z,73.98
2024-02-28T06:07:46.618Z,74.33
2024-02-28T06:09:49.529Z,74.47
2024-02-28T06:11:52.275Z,74.63
2024-02-28T06:13:56.421Z,74.53
2024-02-28T06:16:00.003Z,74.65
2024-02-28T06:18:02.152Z,74.39
2024-02-28T06:20:05.524Z,74.50
2024-02-28T06:22:08.698Z,74.28
2024-02-28T06:24:11.371Z,74.31
2024-02-28T06:26:18.374Z,74.62
2024-02-28T06:28:21.998Z,74.08
2024-02-28T06:30:26.108Z,74.35
2024-02-28T06:32:28.893Z,74.08
2024-02-28T06:34:30.691Z,73.86
2024-02-28T06:36:33.422Z,74.02
2024-02-28T06:38:36.998Z,73.41
2024-02-28T06:40:40.171Z,73.27
2024-02-28T06:42:42.039Z,72.81
2024-02-28T06:44:44.839Z,73.09
2024-02-28T06:46:48.918Z,73.21
2024-02-28T06:48:51.707Z,73.17
2024-02-28T06:50:54.494Z,73.57
2024-02-28T06:52:57.308Z,73.53
2024-02-28T06:55:01.225Z,73.51
2024-02-28T06:57:04.427Z,73.23
2024-02-28T06:59:08.077Z,73.43
2024-02-28T07:01:11.124Z,73.44
2024-02-28T07:03:15.305Z,73.27
2024-02-28T07:05:18.123Z,72.61
2024-02-28T07:07:20.986Z,72.75
2024-02-28T07:09:26.655Z,72.74
2024-02-28T07:11:29.451Z,72.14
2024-02-28T07:13:32.199Z,72.40
2024-02-28T07:15:34.918Z,71.53
2024-02-28T07:17:37.751Z,71.41
2024-02-28T07:19:41.828Z,71.07
2024-02-28T07:21:44.562Z,71.11
2024-02-28T07:23:47.435Z,71.13
2024-02-28T07:25:49.217Z,71.27
2024-02-28T07:27:51.993Z,71.00
2024-02-28T07:29:53.877Z,70.80
2024-02-28T07:31:56.767Z,70.13
2024-02-28T07:33:59.600Z,70.38
2024-02-28T07:36:04.422Z,70.11
2024-02-28T07:38:07.292Z,70.18
2024-02-28T07:40:10.462Z,69.55
2024-02-28T07:42:13.225Z,69.55
2024-02-28T07:44:15.990Z,69.12
2024-02-28T07:46:18.686Z,69.19
2024-02-28T07:48:21.510Z,69.35
2024-02-28T07:50:24.231Z,69.44
2024-02-28T07:52:28.312Z,69.44
2024-02-28T07:54:31.063Z,69.59
2024-02-28T07:56:34.426Z,69.57
2024-02-28T07:58:37.086Z,69.66
2024-02-28T08:00:40.230Z,69.13
2024-02-28T08:02:43.011Z,69.03
2024-02-28T08:04:45.767Z,68.89
2024-02-28T08:06:48.494Z,68.83
2024-02-28T08:08:52.720Z,68.96
2024-02-28T08:10:54.464Z,69.25
2024-02-28T08:12:57.596Z,68.42
2024-02-28T08:15:00.385Z,67.91
2024-02-28T08:17:03.533Z,68.05
2024-02-28T08:19:06.342Z,67.79
2024-02-28T08:21:08.101Z,67.79
2024-02-28T08:23:11.069Z,67.70
2024-02-28T08:25:15.414Z,67.69
2024-02-28T08:27:18.129Z,67.83
2024-02-28T08:29:20.897Z,67.48
2024-02-28T08:31:23.629Z,67.23
2024-02-28T08:33:25.501Z,67.27
2024-02-28T08:35:28.356Z,67.38
2024-02-28T08:37:31.153Z,67.53
2024-02-28T08:39:32.919Z,67.46
2024-02-28T08:41:37.057Z,67.39
2024-02-28T08:43:40.706Z,66.93
2024-02-28T08:45:43.621Z,67.10
2024-02-28T08:47:46.824Z,67.19
2024-02-28T08:49:49.555Z,67.06
2024-02-28T08:51:52.352Z,67.27
2024-02-28T08:53:56.767Z,67.02
2024-02-28T08:55:59.598Z,66.39
2024-02-28T08:58:03.753Z,66.38
2024-02-28T09:00:09.893Z,66.45
2024-02-28T09:02:13.201Z,66.24
2024-02-28T09:04:15.934Z,65.99
2024-02-28T09:06:18.971Z,66.40
2024-02-28T09:08:21.709Z,65.89
2024-02-28T09:10:26.079Z,65.89
2024-02-28T09:12:28.957Z,66.08
2024-02-28T09:14:33.089Z,66.17
2024-02-28T09:16:35.825Z,65.81
2024-02-28T09:18:39.376Z,65.97
2024-02-28T09:20:42.103Z,66.16
2024-02-28T09:22:44.836Z,66.05
2024-02-28T09:24:47.550Z,65.70
2024-02-28T09:26:50.282Z,65.46
2024-02-28T09:28:53.035Z,64.85
2024-02-28T09:30:56.743Z,65.40
2024-02-28T09:32:59.728Z,65.39
2024-02-28T09:35:02.790Z,65.08
2024-02-28T09:37:05.625Z,64.83
2024-02-28T09:39:07.478Z,63.70
2024-02-28T09:41:16.455Z,62.97
2024-02-28T09:43:28.407Z,63.50
2024-02-28T09:45:31.704Z,63.33
2024-02-28T09:47:36.280Z,62.72
2024-02-28T09:49:39.145Z,63.18
2024-02-28T09:51:42.725Z,62.82
2024-02-28T09:53:45.477Z,62.41
2024-02-28T09:55:48.726Z,62.03
2024-02-28T09:57:54.664Z,61.83
2024-02-28T10:00:00.047Z,61.39
2024-02-28T10:02:04.722Z,60.96
2024-02-28T10:04:11.331Z,60.55
2024-02-28T10:06:14.870Z,60.20
2024-02-28T10:08:18.136Z,60.25
2024-02-28T10:10:20.024Z,59.95
2024-02-28T10:12:22.879Z,59.66
2024-02-28T10:14:26.788Z,59.79
2024-02-28T10:16:29.621Z,59.71
2024-02-28T10:18:32.515Z,59.27
2024-02-28T10:20:36.941Z,58.77
2024-02-28T10:22:40.018Z,59.30
2024-02-28T10:24:42.767Z,59.31
2024-02-28T10:26:45.865Z,58.95
2024-02-28T10:28:47.592Z,59.26
2024-02-28T10:30:50.370Z,58.91
2024-02-28T10:32:53.188Z,58.54
2024-02-28T10:34:56.715Z,58.69
2024-02-28T10:37:02.040Z,58.45
2024-02-28T10:39:05.934Z,58.36
2024-02-28T10:41:11.367Z,58.16
2024-02-28T10:43:18.583Z,57.72
2024-02-28T10:45:32.966Z,58.41
2024-02-28T10:47:45.328Z,58.49
2024-02-28T10:49:48.140Z,57.65
2024-02-28T10:51:52.869Z,57.76
2024-02-28T10:54:10.399Z,58.21
2024-02-28T10:56:14.406Z,58.41
2024-02-28T10:58:18.590Z,58.64
2024-02-28T11:00:21.935Z,58.70
2024-02-28T11:02:26.399Z,58.86
2024-02-28T11:04:29.474Z,58.55
2024-02-28T11:06:32.260Z,58.01
2024-02-28T11:08:36.198Z,58.05
2024-02-28T11:10:45.088Z,58.42
2024-02-28T11:12:57.516Z,58.16
2024-02-28T11:15:01.885Z,57.71
2024-02-28T11:17:06.524Z,57.76
2024-02-28T11:19:09.324Z,57.54
2024-02-28T11:21:17.666Z,57.20
2024-02-28T11:23:19.476Z,57.22
2024-02-28T11:25:22.347Z,57.90
2024-02-28T11:27:26.880Z,57.43
2024-02-28T11:29:30.555Z,57.38
2024-02-28T11:31:33.275Z,57.44
2024-02-28T11:33:36.574Z,57.62
2024-02-28T11:35:39.619Z,57.52
2024-02-28T11:37:42.452Z,57.62
2024-02-28T11:39:49.050Z,57.14
2024-02-28T11:41:52.162Z,57.00
2024-02-28T11:43:56.194Z,57.17
2024-02-28T11:45:58.995Z,57.17
2024-02-28T11:48:03.659Z,57.90
2024-02-28T11:50:10.455Z,57.59
2024-02-28T11:52:15.311Z,57.39
2024-02-28T11:54:18.267Z,57.44
2024-02-28T11:56:22.674Z,57.78
2024-02-28T11:58:25.647Z,57.56
2024-02-28T12:00:30.076Z,58.46
2024-02-28T12:02:32.797Z,58.42
2024-02-28T12:04:38.205Z,58.28
2024-02-28T12:06:41.018Z,58.08
2024-02-28T12:08:43.738Z,57.94
2024-02-28T12:10:46.529Z,57.08
2024-02-28T12:12:51.006Z,57.06
2024-02-28T12:14:53.869Z,56.79
2024-02-28T12:16:59.589Z,56.63
2024-02-28T12:19:01.549Z,56.48
2024-02-28T12:21:04.900Z,56.21
2024-02-28T12:23:09.271Z,56.77
2024-02-28T12:25:14.757Z,56.35
2024-02-28T12:27:18.216Z,56.50
2024-02-28T12:29:20.912Z,56.16
2024-02-28T12:31:23.754Z,56.34
2024-02-28T12:33:27.188Z,56.68
2024-02-28T12:35:29.982Z,56.69
2024-02-28T12:37:32.767Z,56.65
2024-02-28T12:39:35.521Z,57.03
2024-02-28T12:41:39.140Z,57.21
2024-02-28T12:43:40.975Z,56.53
2024-02-28T12:45:43.888Z,56.95
2024-02-28T12:47:48.938Z,57.00
2024-02-28T12:49:54.588Z,56.79
2024-02-28T12:51:58.185Z,56.93
2024-02-28T12:54:00.472Z,56.76
2024-02-28T12:56:03.157Z,56.38
2024-02-28T12:58:06.580Z,56.33
2024-02-28T13:00:10.135Z,56.55
2024-02-28T13:02:13.075Z,56.17
2024-02-28T13:04:15.892Z,56.49
2024-02-28T13:06:19.973Z,56.29
2024-02-28T13:08:24.161Z,56.40
2024-02-28T13:10:26.982Z,56.22
2024-02-28T13:12:28.868Z,56.54
2024-02-28T13:14:31.664Z,56.88
2024-02-28T13:16:33.637Z,57.16
2024-02-28T13:18:36.430Z,57.97
2024-02-28T13:20:40.949Z,57.44
2024-02-28T13:22:45.279Z,57.80
2024-02-28T13:24:48.017Z,58.12
2024-02-28T13:26:50.990Z,58.58
2024-02-28T13:28:54.754Z,58.82
2024-02-28T13:30:57.599Z,58.15
2024-02-28T13:33:00.583Z,57.95
2024-02-28T13:35:05.713Z,57.72
2024-02-28T13:37:08.894Z,58.18
2024-02-28T13:39:13.318Z,58.69
2024-02-28T13:41:17.482Z,58.51
2024-02-28T13:43:21.051Z,58.06
2024-02-28T13:45:23.037Z,57.56
2024-02-28T13:47:25.934Z,57.01
2024-02-28T13:49:28.663Z,57.15
2024-02-28T13:51:31.512Z,57.01
2024-02-28T13:53:34.315Z,57.13
2024-02-28T13:55:37.418Z,56.56
2024-02-28T13:57:40.247Z,55.91
2024-02-28T13:59:44.186Z,56.41
2024-02-28T14:01:47.036Z,55.73
2024-02-28T14:03:50.159Z,56.01
2024-02-28T14:05:53.183Z,55.70
2024-02-28T14:07:55.909Z,55.17
2024-02-28T14:09:59.589Z,55.13
2024-02-28T14:12:03.770Z,55.49
2024-02-28T14:14:06.517Z,55.62
2024-02-28T14:16:09.816Z,55.67
2024-02-28T14:18:13.081Z,55.56
2024-02-28T14:20:16.190Z,55.92
2024-02-28T14:22:19.013Z,55.92
2024-02-28T14:24:21.880Z,56.31
2024-02-28T14:26:25.403Z,57.47
2024-02-28T14:28:29.666Z,57.02
2024-02-28T14:30:32.533Z,56.94
2024-02-28T14:32:35.302Z,56.81
2024-02-28T14:34:38.093Z,56.67
2024-02-28T14:36:40.817Z,56.72
2024-02-28T14:38:44.932Z,56.28
2024-02-28T14:40:48.309Z,57.14
2024-02-28T14:42:51.102Z,56.89
2024-02-28T14:44:55.520Z,56.62
2024-02-28T14:46:58.566Z,55.43
2024-02-28T14:49:01.344Z,54.85
2024-02-28T14:51:04.458Z,53.33
2024-02-28T14:53:07.716Z,51.93
2024-02-28T14:55:11.566Z,51.40
2024-02-28T14:57:14.801Z,51.47
2024-02-28T14:59:16.589Z,51.38
2024-02-28T15:01:20.703Z,51.11
2024-02-28T15:03:24.306Z,52.32
2024-02-28T15:05:28.347Z,53.36
2024-02-28T15:07:31.125Z,52.30
2024-02-28T15:09:36.050Z,51.95
2024-02-28T15:11:39.894Z,51.83
2024-02-28T15:13:43.355Z,51.68
2024-02-28T15:15:45.180Z,51.15
2024-02-28T15:17:49.325Z,51.11
2024-02-28T15:19:51.280Z,51.09
2024-02-28T15:21:54.404Z,50.05
2024-02-28T15:23:56.218Z,48.75
2024-02-28T15:25:59.038Z,48.51
2024-02-28T15:28:01.150Z,47.91
2024-02-28T15:30:06.089Z,47.46
2024-02-28T15:32:07.903Z,47.34
2024-02-28T15:34:12.523Z,46.37
2024-02-28T15:36:15.283Z,46.06
2024-02-28T15:38:17.142Z,45.95
2024-02-28T15:40:22.296Z,45.20
2024-02-28T15:42:24.191Z,45.11
2024-02-28T15:44:27.002Z,45.21
2024-02-28T15:46:29.968Z,45.19
2024-02-28T15:48:32.739Z,45.74
2024-02-28T15:50:37.017Z,45.49
2024-02-28T15:52:39.847Z,46.04
2024-02-28T15:54:42.667Z,46.86
2024-02-28T15:56:45.454Z,47.05
2024-02-28T15:58:48.158Z,47.96
2024-02-28T16:00:51.855Z,48.25
2024-02-28T16:02:54.745Z,48.73
2024-02-28T16:04:57.485Z,48.89
2024-02-28T16:07:02.449Z,49.58
2024-02-28T16:09:06.674Z,49.47
2024-02-28T16:11:10.037Z,50.17
2024-02-28T16:13:13.120Z,49.92
2024-02-28T16:15:16.126Z,50.24
2024-02-28T16:17:18.818Z,51.15
2024-02-28T16:19:26.698Z,51.41
2024-02-28T16:21:30.372Z,52.09
2024-02-28T16:23:34.928Z,52.53
2024-02-28T16:25:37.677Z,52.99
2024-02-28T16:27:41.628Z,53.61
2024-02-28T16:29:44.384Z,53.94
2024-02-28T16:31:50.455Z,54.30
2024-02-28T16:33:53.653Z,54.51
2024-02-28T16:35:58.006Z,54.84
2024-02-28T16:38:00.776Z,55.27
2024-02-28T16:40:07.861Z,55.71
2024-02-28T16:42:10.656Z,56.24
2024-02-28T16:44:13.389Z,56.59
2024-02-28T16:46:16.351Z,56.51
2024-02-28T16:48:19.141Z,56.74
2024-02-28T16:50:20.951Z,57.20
2024-02-28T16:52:23.797Z,57.88
2024-02-28T16:54:26.586Z,58.17
2024-02-28T16:56:30.848Z,58.56
2024-02-28T16:58:36.147Z,59.48
2024-02-28T17:00:39.067Z,59.58
2024-02-28T17:02:42.687Z,59.83
2024-02-28T17:04:45.630Z,60.50
2024-02-28T17:06:51.209Z,60.69
2024-02-28T17:08:53.952Z,61.24
2024-02-28T17:10:57.168Z,61.27
2024-02-28T17:13:01.518Z,61.54
2024-02-28T17:15:03.580Z,61.75
2024-02-28T17:17:06.430Z,61.81
2024-02-28T17:19:09.290Z,62.17
2024-02-28T17:21:11.176Z,62.28
2024-02-28T17:23:13.926Z,62.61
2024-02-28T17:25:16.772Z,62.93
2024-02-28T17:27:19.544Z,63.22
2024-02-28T17:29:23.784Z,63.22
2024-02-28T17:31:26.508Z,63.31
2024-02-28T17:33:29.363Z,63.60
2024-02-28T17:35:31.726Z,63.92
2024-02-28T17:37:35.050Z,64.19
2024-02-28T17:39:39.657Z,64.54
2024-02-28T17:41:43.001Z,64.65
2024-02-28T17:43:45.860Z,64.90
2024-02-28T17:45:50.328Z,65.25
2024-02-28T17:47:53.366Z,65.44
2024-02-28T17:49:55.573Z,65.20
2024-02-28T17:51:59.401Z,65.37
2024-02-28T17:54:02.196Z,65.55
2024-02-28T17:56:06.946Z,65.76
2024-02-28T17:58:11.008Z,65.89
2024-02-28T18:00:14.790Z,66.21
2024-02-28T18:02:20.100Z,66.35
2024-02-28T18:04:22.898Z,66.98
2024-02-28T18:06:25.702Z,67.30
2024-02-28T18:08:31.258Z,68.13
2024-02-28T18:10:34.229Z,68.58
2024-02-28T18:12:36.031Z,68.55
2024-02-28T18:14:39.577Z,68.33
2024-02-28T18:16:43.593Z,68.50
2024-02-28T18:18:47.994Z,68.21
2024-02-28T18:20:50.844Z,68.37
2024-02-28T18:22:53.645Z,68.63
2024-02-28T18:24:58.955Z,68.38
2024-02-28T18:27:01.744Z,68.53
2024-02-28T18:29:04.548Z,68.71
2024-02-28T18:31:07.705Z,68.88
2024-02-28T18:33:09.478Z,68.77
2024-02-28T18:35:15.588Z,68.95
2024-02-28T18:37:18.534Z,68.86
2024-02-28T18:39:21.402Z,68.84
2024-02-28T18:41:24.114Z,68.53
2024-02-28T18:43:26.874Z,68.62
2024-02-28T18:45:29.688Z,68.77
2024-02-28T18:47:32.470Z,68.79
2024-02-28T18:49:35.402Z,68.50
2024-02-28T18:51:39.579Z,68.65
2024-02-28T18:53:44.250Z,68.64
2024-02-28T18:55:47.054Z,68.74
2024-02-28T18:57:48.977Z,68.60
2024-02-28T18:59:51.906Z,68.52
2024-02-28T19:01:54.738Z,68.49
2024-02-28T19:03:57.623Z,68.48
2024-02-28T19:06:00.397Z,68.48
2024-02-28T19:08:04.760Z,68.65
2024-02-28T19:10:09.334Z,68.53
2024-02-28T19:12:12.165Z,68.50
2024-02-28T19:14:15.013Z,68.38
2024-02-28T19:16:19.568Z,68.87
2024-02-28T19:18:22.372Z,68.69
2024-02-28T19:20:25.221Z,68.84
2024-02-28T19:22:26.986Z,68.79
2024-02-28T19:24:31.140Z,68.97
2024-02-28T19:26:33.093Z,68.98
2024-02-28T19:28:36.086Z,68.71
2024-02-28T19:30:38.971Z,68.76
2024-02-28T19:32:41.730Z,69.09
2024-02-28T19:34:44.625Z,68.99
2024-02-28T19:36:47.532Z,69.07
2024-02-28T19:38:50.305Z,68.91
2024-02-28T19:40:54.462Z,69.07
2024-02-28T19:42:57.290Z,68.75
2024-02-28T19:45:00.040Z,68.92
2024-02-28T19:47:02.788Z,69.09
2024-02-28T19:49:05.765Z,69.34
2024-02-28T19:51:08.610Z,69.57
2024-02-28T19:53:11.747Z,69.55
2024-02-28T19:55:14.923Z,69.41
2024-02-28T19:57:19.711Z,69.80
2024-02-28T19:59:22.508Z,69.81
2024-02-28T20:01:25.748Z,69.69
2024-02-28T20:03:28.717Z,69.95
2024-02-28T20:05:31.473Z,69.98
2024-02-28T20:07:34.555Z,69.90
2024-02-28T20:09:37.763Z,70.03
2024-02-28T20:11:40.782Z,69.99
2024-02-28T20:13:49.165Z,69.77
2024-02-28T20:15:52.043Z,69.70
2024-02-28T20:17:54.650Z,70.17
2024-02-28T20:19:58.270Z,70.30
2024-02-28T20:22:01.214Z,70.14
2024-02-28T20:24:04.033Z,70.19
2024-02-28T20:26:07.820Z,70.13
2024-02-28T20:28:11.833Z,70.22
2024-02-28T20:30:16.377Z,70.39
2024-02-28T20:32:18.399Z,70.23
2024-02-28T20:34:21.521Z,70.65
2024-02-28T20:36:24.385Z,70.88
2024-02-28T20:38:29.150Z,71.36
2024-02-28T20:40:31.927Z,71.60
2024-02-28T20:42:36.634Z,71.63
2024-02-28T20:44:38.589Z,71.46
2024-02-28T20:46:42.927Z,71.57
2024-02-28T20:48:45.760Z,71.19
2024-02-28T20:50:49.145Z,71.30
2024-02-28T20:52:52.981Z,71.22
2024-02-28T20:54:57.538Z,71.18
2024-02-28T20:57:06.117Z,70.95
2024-02-28T20:59:15.401Z,71.09
2024-02-28T21:01:19.194Z,71.93
2024-02-28T21:03:22.466Z,71.85
2024-02-28T21:05:25.316Z,71.98
2024-02-28T21:07:37.148Z,72.12
2024-02-28T21:09:49.466Z,72.49
2024-02-28T21:12:03.772Z,72.30
2024-02-28T21:14:06.540Z,72.67
2024-02-28T21:16:09.336Z,72.84
2024-02-28T21:18:12.223Z,72.94
2024-02-28T21:20:17.211Z,72.77
2024-02-28T21:22:20.727Z,73.00
2024-02-28T21:24:23.513Z,73.21
2024-02-28T21:26:26.609Z,73.14
2024-02-28T21:28:29.389Z,72.88
2024-02-28T21:30:32.278Z,72.76
2024-02-28T21:32:36.865Z,72.95
2024-02-28T21:34:38.872Z,73.20
2024-02-28T21:36:43.456Z,73.18
2024-02-28T21:38:46.214Z,73.25
2024-02-28T21:40:49.001Z,73.61
2024-02-28T21:42:52.480Z,73.61
2024-02-28T21:44:55.279Z,74.19
2024-02-28T21:46:58.104Z,74.12
2024-02-28T21:49:06.194Z,74.24
2024-02-28T21:51:13.664Z,74.39
2024-02-28T21:53:17.789Z,74.46
2024-02-28T21:55:20.545Z,74.38
2024-02-28T21:57:23.345Z,74.49
2024-02-28T21:59:26.139Z,74.75
2024-02-28T22:01:29.172Z,74.85
2024-02-28T22:03:31.182Z,74.98
2024-02-28T22:05:33.913Z,75.29
2024-02-28T22:07:36.644Z,75.47
2024-02-28T22:09:40.740Z,75.72
2024-02-28T22:11:43.509Z,76.03
2024-02-28T22:13:46.240Z,75.71
2024-02-28T22:15:48.998Z,75.97
2024-02-28T22:17:54.394Z,76.03
2024-02-28T22:19:57.203Z,75.93
2024-02-28T22:22:00.977Z,75.56
2024-02-28T22:24:05.245Z,76.03
2024-02-28T22:26:09.473Z,76.31
2024-02-28T22:28:12.280Z,76.11
2024-02-28T22:30:15.517Z,76.08
2024-02-28T22:32:18.260Z,76.05
2024-02-28T22:34:21.079Z,76.14
2024-02-28T22:36:22.952Z,76.28
2024-02-28T22:38:25.715Z,76.22
2024-02-28T22:40:28.429Z,76.40
2024-02-28T22:42:32.503Z,76.34
2024-02-28T22:44:35.241Z,76.53
2024-02-28T22:46:38.223Z,76.46
2024-02-28T22:48:40.099Z,76.33
2024-02-28T22:50:43.948Z,76.16
2024-02-28T22:52:47.819Z,76.05
2024-02-28T22:54:51.100Z,76.51
2024-02-28T22:56:53.675Z,76.54
2024-02-28T22:58:57.870Z,76.34
2024-02-28T23:01:00.842Z,76.44
2024-02-28T23:03:10.011Z,76.04
2024-02-28T23:05:13.283Z,76.04
2024-02-28T23:07:16.360Z,76.35
2024-02-28T23:09:19.167Z,76.33
2024-02-28T23:11:22.144Z,75.97
2024-02-28T23:13:24.971Z,76.12
2024-02-28T23:15:29.559Z,76.73
2024-02-28T23:17:33.214Z,77.01
2024-02-28T23:19:37.577Z,77.00
2024-02-28T23:21:40.765Z,77.34
2024-02-28T23:23:43.634Z,77.50
2024-02-28T23:25:46.424Z,77.38
2024-02-28T23:27:49.731Z,76.59
2024-02-28T23:29:52.496Z,76.71
2024-02-28T23:31:56.730Z,76.87
2024-02-28T23:33:58.584Z,76.76
2024-02-28T23:36:01.342Z,76.15
2024-02-28T23:38:03.210Z,76.41
2024-02-28T23:40:07.726Z,76.83
2024-02-28T23:42:09.635Z,77.30
2024-02-28T23:44:12.392Z,77.16
2024-02-28T23:46:15.448Z,77.46
2024-02-28T23:48:19.689Z,77.61
2024-02-28T23:50:22.941Z,77.50
2024-02-28T23:52:25.927Z,77.92
2024-02-28T23:54:29.438Z,77.49
2024-02-28T23:56:32.264Z,77.42
2024-02-28T23:58:34.210Z,77.45
